Time;durP1;ratioP1;P1;durP2;ratioP2;P2;SDS_P1;SDS_P2;PMS_P1;PMS_P2;Temp;Humidity;BMP_temperature;BMP_pressure;BME280_temperature;BME280_humidity;BME280_pressure;Samples;Min_cycle;Max_cycle;Signal;HPM_P1;HPM_P2
2022/12/04 00:00:37;;;;;;;137.30;38.60;;;;;;;6.83;100.00;101301.56;5087481;28;20403;-28
2022/12/04 00:03:02;;;;;;;63.78;27.02;;;;;;;7.16;100.00;101317.50;5087240;28;20695;-31
2022/12/04 00:05:28;;;;;;;60.92;22.52;;;;;;;6.97;100.00;101315.19;5069218;28;20522;-29
2022/12/04 00:07:53;;;;;;;63.67;23.42;;;;;;;6.83;100.00;101301.56;5087223;28;20032;-30
2022/12/04 00:10:19;;;;;;;153.63;44.15;;;;;;;7.01;100.00;101312.03;5068684;28;20036;-29
2022/12/04 00:12:44;;;;;;;188.73;46.92;;;;;;;7.07;100.00;101312.34;5087360;28;20035;-30
2022/12/04 00:15:10;;;;;;;59.45;23.25;;;;;;;7.13;100.00;101317.84;5087309;28;20020;-31
2022/12/04 00:17:35;;;;;;;201.10;66.45;;;;;;;6.95;100.00;101304.72;5068395;28;20139;-30
2022/12/04 00:20:00;;;;;;;96.93;41.10;;;;;;;7.07;100.00;101322.94;5086865;28;20028;-29
2022/12/04 00:22:26;;;;;;;63.08;29.40;;;;;;;7.02;100.00;101320.81;5087081;28;20032;-28
2022/12/04 00:24:51;;;;;;;40.38;18.67;;;;;;;7.02;100.00;101315.50;5087039;28;20024;-34
2022/12/04 00:27:17;;;;;;;49.58;20.15;;;;;;;6.78;100.00;101295.94;5087264;28;20042;-30
2022/12/04 00:29:42;;;;;;;122.43;44.45;;;;;;;7.06;100.00;101323.97;5087036;28;20058;-29
2022/12/04 00:32:07;;;;;;;49.28;18.75;;;;;;;7.06;100.00;101322.13;5068432;28;20032;-32
2022/12/04 00:34:33;;;;;;;82.47;33.80;;;;;;;6.81;100.00;101327.41;5086811;28;20027;-29
2022/12/04 00:36:58;;;;;;;73.65;32.63;;;;;;;7.01;100.00;101329.78;5068472;28;20032;-32
2022/12/04 00:39:24;;;;;;;52.53;20.77;;;;;;;6.66;100.00;101318.44;5086781;28;20042;-31
2022/12/04 00:41:49;;;;;;;53.97;24.23;;;;;;;6.69;100.00;101310.16;5086233;28;20028;-28
2022/12/04 00:44:14;;;;;;;75.50;34.72;;;;;;;6.77;100.00;101323.44;5086527;28;20112;-28
2022/12/04 00:46:40;;;;;;;93.00;41.33;;;;;;;6.82;100.00;101326.44;5086751;28;20031;-27
2022/12/04 00:49:05;;;;;;;46.15;18.42;;;;;;;7.08;100.00;101333.41;5068162;28;20039;-30
2022/12/04 00:51:30;;;;;;;50.67;21.77;;;;;;;7.02;100.00;101320.81;5086495;28;20419;-29
2022/12/04 00:53:56;;;;;;;58.42;26.33;;;;;;;6.95;100.00;101331.25;5067708;28;20119;-29
2022/12/04 00:56:24;;;;;;;65.18;27.30;;;;;;;6.84;100.00;101297.94;5086325;28;20144;-36
2022/12/04 00:58:55;;;;;;;71.75;30.73;;;;;;;6.92;100.00;101330.75;5067883;28;20060;-29
2022/12/04 01:01:21;;;;;;;60.83;23.75;;;;;;;7.00;100.00;101328.91;5086485;28;20720;-28
2022/12/04 01:03:47;;;;;;;79.50;38.20;;;;;;;6.98;100.00;101324.78;5085507;28;20067;-29
2022/12/04 01:06:24;;;;;;;67.55;30.35;;;;;;;7.19;100.00;101317.19;5086297;28;20115;-29
2022/12/04 01:08:51;;;;;;;69.55;29.13;;;;;;;6.97;100.00;101320.47;5086371;28;20119;-29
2022/12/04 01:11:18;;;;;;;63.00;26.15;;;;;;;6.96;100.00;101316.16;5067940;28;20027;-29
2022/12/04 01:13:43;;;;;;;93.97;38.95;;;;;;;7.06;100.00;101321.31;5067637;28;20062;-28
2022/12/04 01:16:16;;;;;;;84.10;36.65;;;;;;;6.96;100.00;101316.16;5067491;28;20029;-28
2022/12/04 01:18:41;;;;;;;125.78;51.00;;;;;;;6.81;100.00;101321.28;5067880;28;20055;-28
2022/12/04 01:21:07;;;;;;;79.75;31.77;;;;;;;6.97;100.00;101318.66;5086169;28;20085;-32
2022/12/04 01:23:32;;;;;;;57.25;25.13;;;;;;;6.96;100.00;101316.16;5068201;28;20024;-32
2022/12/04 01:25:58;;;;;;;110.63;41.45;;;;;;;6.99;100.00;101294.63;5086430;28;20039;-32
2022/12/04 01:28:24;;;;;;;56.22;25.38;;;;;;;7.03;100.00;101312.69;5067930;28;20047;-28
2022/12/04 01:31:10;;;;;;;37.47;17.95;;;;;;;6.93;100.00;101308.53;5086150;28;20165;-34
2022/12/04 01:33:36;;;;;;;31.83;14.02;;;;;;;6.95;100.00;101295.94;5067628;28;20031;-30
2022/12/04 01:36:04;;;;;;;33.40;15.07;;;;;;;7.03;100.00;101318.00;5085837;28;20035;-30
2022/12/04 01:38:30;;;;;;;35.33;14.73;;;;;;;7.04;100.00;101309.03;5067626;28;20024;-30
2022/12/04 01:40:56;;;;;;;35.20;16.75;;;;;;;7.05;100.00;101315.19;5085535;28;20093;-27
2022/12/04 01:43:22;;;;;;;51.55;28.30;;;;;;;7.10;100.00;101312.84;5067614;28;20748;-28
2022/12/04 01:45:50;;;;;;;31.63;14.27;;;;;;;6.90;100.00;101314.16;5085655;28;20124;-28
2022/12/04 01:48:30;;;;;;;32.78;13.88;;;;;;;6.94;100.00;101307.53;5067406;28;20032;-29
2022/12/04 01:51:27;;;;;;;31.27;13.82;;;;;;;6.92;100.00;101314.81;5085991;28;20487;-28
2022/12/04 01:53:59;;;;;;;33.10;13.80;;;;;;;7.00;100.00;101301.56;5084327;28;20044;-29
2022/12/04 01:56:31;;;;;;;32.50;13.98;;;;;;;7.09;100.00;101305.91;5085371;28;20028;-35
2022/12/04 01:59:00;;;;;;;32.75;14.32;;;;;;;7.08;100.00;101292.81;5085741;28;20081;-28
2022/12/04 02:01:30;;;;;;;34.90;14.30;;;;;;;6.96;100.00;101310.84;5067683;28;20031;-32
2022/12/04 02:03:59;;;;;;;36.47;16.73;;;;;;;7.03;100.00;101317.19;5067486;28;20016;-28
2022/12/04 02:06:24;;;;;;;29.38;13.43;;;;;;;7.08;100.00;101309.53;5085695;28;20105;-28
2022/12/04 02:08:50;;;;;;;32.75;14.95;;;;;;;6.97;100.00;101308.03;5085566;28;20024;-28
2022/12/04 02:11:25;;;;;;;33.10;13.60;;;;;;;6.97;100.00;101301.91;5085287;28;20024;-32
2022/12/04 02:14:09;;;;;;;31.10;14.02;;;;;;;6.90;100.00;101290.28;5085628;28;20031;-28
2022/12/04 02:16:44;;;;;;;34.33;15.80;;;;;;;6.87;100.00;101311.84;5068778;28;20067;-29
2022/12/04 02:19:31;;;;;;;39.67;19.48;;;;;;;6.95;100.00;101309.22;5089411;28;20060;-34
2022/12/04 02:22:02;;;;;;;33.97;14.98;;;;;;;6.98;100.00;101303.56;5089653;28;20024;-28
2022/12/04 02:25:13;;;;;;;34.03;13.13;;;;;;;6.97;100.00;101307.22;5089599;28;20101;-33
2022/12/04 02:27:39;;;;;;;28.40;12.68;;;;;;;6.97;100.00;101307.22;5026194;28;20045;-29
2022/12/04 02:30:12;;;;;;;30.00;13.40;;;;;;;6.91;100.00;101305.22;5061824;28;20043;-32
2022/12/04 02:32:44;;;;;;;30.15;12.65;;;;;;;6.80;100.00;101301.91;5089273;28;20032;-28
2022/12/04 02:35:26;;;;;;;30.08;13.25;;;;;;;7.01;100.00;101297.94;5089284;28;20039;-30
2022/12/04 02:37:57;;;;;;;28.70;12.00;;;;;;;6.71;100.00;101286.13;5088854;28;20056;-28
2022/12/04 02:40:38;;;;;;;29.92;12.75;;;;;;;6.81;100.00;101300.91;5070573;28;20215;-28
2022/12/04 02:43:10;;;;;;;30.75;13.15;;;;;;;7.06;100.00;101306.22;5089105;28;20036;-29
2022/12/04 02:45:44;;;;;;;27.42;12.80;;;;;;;6.99;100.00;101310.53;5089098;28;20082;-29
2022/12/04 02:48:13;;;;;;;32.20;12.70;;;;;;;6.90;100.00;101312.34;5088905;28;20093;-30
2022/12/04 02:50:40;;;;;;;24.40;12.32;;;;;;;6.84;100.00;101308.53;5088872;28;20491;-30
2022/12/04 02:53:46;;;;;;;26.13;12.30;;;;;;;7.02;100.00;101310.19;5070466;28;20024;-30
2022/12/04 02:56:16;;;;;;;22.95;11.18;;;;;;;7.03;100.00;101315.34;5006262;28;20069;-29
2022/12/04 02:58:51;;;;;;;26.63;13.00;;;;;;;7.07;100.00;101307.91;5005661;28;20042;-29
2022/12/04 03:01:23;;;;;;;29.50;13.50;;;;;;;7.15;100.00;101309.69;5052652;28;20040;-32
2022/12/04 03:04:02;;;;;;;27.65;12.32;;;;;;;7.05;100.00;101296.63;5088586;28;20683;-29
2022/12/04 03:06:33;;;;;;;30.00;14.43;;;;;;;7.28;100.00;101299.44;5088588;28;20077;-30
2022/12/04 03:09:05;;;;;;;22.05;11.20;;;;;;;6.98;100.00;101308.88;5088448;28;20032;-32
2022/12/04 03:11:35;;;;;;;24.40;11.07;;;;;;;7.05;100.00;101309.88;5088569;28;20028;-35
2022/12/04 03:14:15;;;;;;;25.38;11.93;;;;;;;6.90;100.00;101306.22;5088676;28;20036;-31
2022/12/04 03:16:41;;;;;;;23.52;10.20;;;;;;;6.76;100.00;101313.81;5069735;28;20071;-30
2022/12/04 03:19:18;;;;;;;24.08;12.10;;;;;;;6.65;100.00;101292.91;5088274;28;20502;-27
2022/12/04 03:21:50;;;;;;;25.17;10.70;;;;;;;6.73;100.00;101311.50;5069568;28;20115;-29
2022/12/04 03:24:16;;;;;;;23.42;10.10;;;;;;;6.86;100.00;101311.00;5069722;28;20028;-31
2022/12/04 03:26:46;;;;;;;26.40;11.27;;;;;;;7.07;100.00;101317.66;5087653;28;20093;-29
2022/12/04 03:29:27;;;;;;;23.05;11.52;;;;;;;6.78;100.00;101317.16;5070368;28;20027;-29
2022/12/04 03:32:13;;;;;;;31.65;16.33;;;;;;;6.89;100.00;101321.28;5088213;28;20024;-33
2022/12/04 03:34:56;;;;;;;23.27;10.45;;;;;;;6.70;100.00;101311.81;5087953;28;20480;-28
2022/12/04 03:37:31;;;;;;;23.15;11.75;;;;;;;6.73;100.00;101321.28;5069390;28;20028;-29
2022/12/04 03:40:27;;;;;;;28.70;10.85;;;;;;;6.72;100.00;101317.78;5087643;28;20035;-28
2022/12/04 03:43:02;;;;;;;23.10;10.68;;;;;;;6.67;100.00;101296.22;5078866;28;20070;-34
2022/12/04 03:45:53;;;;;;;25.27;10.55;;;;;;;6.76;100.00;101305.88;5087672;28;20059;-32
2022/12/04 03:48:51;;;;;;;26.92;12.13;;;;;;;6.81;100.00;101311.50;5069004;28;20044;-31
2022/12/04 03:51:22;;;;;;;26.33;11.07;;;;;;;6.72;100.00;101307.19;5087748;28;20057;-28
2022/12/04 03:54:01;;;;;;;24.13;10.38;;;;;;;6.77;100.00;101318.13;5069115;28;20028;-28
2022/12/04 03:56:39;;;;;;;37.55;18.13;;;;;;;6.73;100.00;101315.97;5087795;28;20036;-31
2022/12/04 03:59:29;;;;;;;28.00;13.38;;;;;;;6.77;100.00;101328.72;5087339;28;20043;-29
2022/12/04 04:01:57;;;;;;;52.28;22.33;;;;;;;6.97;100.00;101318.66;5069227;28;20066;-28
2022/12/04 04:04:36;;;;;;;49.55;22.08;;;;;;;6.90;100.00;101296.41;5087424;28;20024;-30
2022/12/04 04:07:14;;;;;;;39.75;17.85;;;;;;;6.91;100.00;101292.78;5087133;28;20024;-32
2022/12/04 04:09:44;;;;;;;58.83;24.38;;;;;;;7.04;100.00;101321.47;5087145;28;20085;-28
2022/12/04 04:12:15;;;;;;;60.58;23.02;;;;;;;6.80;100.00;101327.56;5087118;28;20612;-29
2022/12/04 04:26:40;;;;;;;71.07;23.98;;;;;;;6.73;100.00;101335.34;5004155;28;20083;-35
2022/12/04 04:29:08;;;;;;;48.67;18.70;;;;;;;6.52;100.00;101313.75;5056567;28;20105;-29
2022/12/04 04:31:48;;;;;;;59.28;20.73;;;;;;;6.85;100.00;101346.47;5068795;28;20028;-32
2022/12/04 04:34:32;;;;;;;64.68;22.70;;;;;;;6.56;100.00;101336.28;5086778;28;20119;-28
2022/12/04 04:37:01;;;;;;;128.70;36.35;;;;;;;6.56;100.00;101330.97;5067988;28;20057;-31
2022/12/04 04:39:38;;;;;;;89.13;28.73;;;;;;;6.50;100.00;101332.47;5086257;28;20117;-32
2022/12/04 04:42:28;;;;;;;47.80;18.38;;;;;;;6.56;100.00;101341.59;5086907;28;20063;-29
2022/12/04 04:45:00;;;;;;;43.70;17.55;;;;;;;6.48;100.00;101307.97;5086638;28;20054;-29
2022/12/04 04:47:35;;;;;;;148.55;40.95;;;;;;;6.52;100.00;101313.75;5067897;28;20028;-31
2022/12/04 04:50:04;;;;;;;132.85;41.25;;;;;;;6.74;100.00;101328.22;5086811;28;20539;-30
2022/12/04 04:52:30;;;;;;;;;;;;;;;6.89;100.00;101341.69;5051766;28;20463;-31
2022/12/04 04:54:58;;;;;;;382.95;90.38;;;;;;;6.72;100.00;101320.44;5086421;28;19911;-28
2022/12/04 04:57:34;;;;;;;253.25;59.70;;;;;;;6.67;100.00;101343.94;5068069;28;20028;-29
2022/12/04 05:00:00;;;;;;;160.45;45.15;;;;;;;6.66;100.00;101347.59;5067699;28;20072;-29
2022/12/04 05:02:26;;;;;;;209.57;81.20;;;;;;;6.55;100.00;101329.34;5068106;28;20467;-33
2022/12/04 05:04:51;;;;;;;107.50;42.45;;;;;;;6.71;100.00;101317.94;5068130;28;20093;-30
2022/12/04 05:07:17;;;;;;;102.05;27.63;;;;;;;6.93;100.00;101335.06;5086379;28;20032;-29
2022/12/04 05:09:42;;;;;;;50.88;20.00;;;;;;;6.71;100.00;101342.63;5085903;28;20024;-29
2022/12/04 05:12:08;;;;;;;80.45;37.05;;;;;;;6.70;100.00;101343.63;5068032;28;20043;-35
2022/12/04 05:14:34;;;;;;;68.63;32.33;;;;;;;6.78;100.00;101348.97;5067660;28;20032;-32
2022/12/04 05:16:59;;;;;;;98.32;31.40;;;;;;;6.68;100.00;101350.94;5085902;28;20059;-28
2022/12/04 05:22:08;;;;;;;65.55;24.33;;;;;;;6.63;100.00;101332.00;5086449;28;20419;-31
2022/12/04 05:24:34;;;;;;;245.15;67.63;;;;;;;6.66;100.00;101347.59;5086209;28;20471;-29
2022/12/04 05:26:59;;;;;;;152.73;44.28;;;;;;;6.97;100.00;101333.75;5067299;28;20051;-35
2022/12/04 05:29:25;;;;;;;132.93;38.90;;;;;;;7.02;100.00;101345.50;5086327;28;20426;-28
2022/12/04 05:31:50;;;;;;;65.13;23.95;;;;;;;6.93;100.00;101359.75;5086054;28;20107;-28
2022/12/04 05:34:15;;;;;;;86.22;34.42;;;;;;;6.88;100.00;101350.63;5085962;28;20027;-29
2022/12/04 05:36:41;;;;;;;84.03;33.83;;;;;;;6.74;100.00;101350.28;5086107;28;20043;-28
2022/12/04 05:39:06;;;;;;;59.22;24.42;;;;;;;6.75;100.00;101354.56;5085872;28;20776;-33
2022/12/04 05:41:33;;;;;;;82.30;31.13;;;;;;;6.80;100.00;101354.94;5085743;28;20512;-30
2022/12/04 05:43:58;;;;;;;75.43;30.58;;;;;;;6.63;100.00;101358.50;5085831;28;20028;-31
2022/12/04 05:46:24;;;;;;;103.07;42.03;;;;;;;6.76;100.00;101361.56;5085998;28;20036;-29
2022/12/04 05:48:49;;;;;;;168.05;56.45;;;;;;;6.58;100.00;101356.34;5067627;28;20032;-30
2022/12/04 05:51:14;;;;;;;97.55;37.30;;;;;;;6.51;100.00;101352.69;5089386;28;20028;-33
2022/12/04 05:53:40;;;;;;;75.97;36.60;;;;;;;6.61;100.00;101365.81;5089706;28;20024;-29
2022/12/04 05:56:06;;;;;;;132.20;61.03;;;;;;;6.69;100.00;101363.16;5089809;28;20028;-28
2022/12/04 05:58:36;;;;;;;150.13;66.60;;;;;;;6.57;100.00;101361.81;5071398;28;20110;-31
2022/12/04 06:01:14;;;;;;;63.17;34.95;;;;;;;6.82;100.00;101381.25;5090184;28;20431;-35
2022/12/04 06:03:39;;;;;;;49.03;26.10;;;;;;;6.86;100.00;101376.47;5089839;28;20589;-37
2022/12/04 06:06:14;;;;;;;36.80;20.52;;;;;;;6.72;100.00;101370.81;5089691;28;20032;-30
2022/12/04 06:08:39;;;;;;;26.60;13.40;;;;;;;6.97;100.00;101368.22;5070831;28;20024;-35
2022/12/04 06:11:12;;;;;;;36.83;17.25;;;;;;;6.84;100.00;101371.31;5089599;28;20062;-29
2022/12/04 06:13:40;;;;;;;37.63;18.90;;;;;;;6.78;100.00;101351.63;5070907;28;20076;-38
2022/12/04 06:16:05;;;;;;;26.52;13.13;;;;;;;6.78;100.00;101354.25;5054423;28;20189;-30
2022/12/04 06:18:30;;;;;;;31.90;17.92;;;;;;;6.63;100.00;101348.72;5070601;28;20855;-31
2022/12/04 06:20:59;;;;;;;30.15;16.38;;;;;;;6.76;100.00;101382.75;5089454;28;20020;-29
2022/12/04 06:23:24;;;;;;;30.77;15.00;;;;;;;6.64;100.00;101376.09;5088919;28;20071;-34
2022/12/04 06:25:50;;;;;;;24.95;12.45;;;;;;;6.73;100.00;101391.03;5089534;28;20120;-29
2022/12/04 06:28:15;;;;;;;30.58;13.63;;;;;;;6.82;100.00;101379.47;5071131;28;20573;-30
2022/12/04 06:30:40;;;;;;;22.52;12.00;;;;;;;6.80;100.00;101391.19;5089260;28;20035;-30
2022/12/04 06:33:06;;;;;;;28.98;12.85;;;;;;;6.72;100.00;101389.38;5089192;28;20107;-31
2022/12/04 06:35:31;;;;;;;23.42;12.43;;;;;;;6.80;100.00;101400.00;5089302;28;20028;-28
2022/12/04 06:37:57;;;;;;;76.03;30.52;;;;;;;6.72;100.00;101399.97;5070541;28;20028;-28
2022/12/04 06:40:22;;;;;;;36.55;15.65;;;;;;;6.89;100.00;101405.34;5070865;28;20472;-28
2022/12/04 06:42:48;;;;;;;33.03;16.40;;;;;;;7.01;100.00;101393.44;5089486;28;20024;-31
2022/12/04 06:45:14;;;;;;;30.02;15.43;;;;;;;7.14;100.00;101401.72;5088951;28;20525;-34
2022/12/04 06:47:39;;;;;;;33.20;14.85;;;;;;;6.82;100.00;101399.81;5070169;28;20036;-29
2022/12/04 06:50:05;;;;;;;34.17;16.45;;;;;;;6.96;100.00;101411.63;5070457;28;20020;-30
2022/12/04 06:52:32;;;;;;;28.48;12.88;;;;;;;6.88;100.00;101414.25;5088502;28;20032;-28
2022/12/04 06:54:57;;;;;;;46.75;19.70;;;;;;;6.84;100.00;101411.94;5070627;28;20024;-32
2022/12/04 06:57:23;;;;;;;37.50;16.75;;;;;;;6.84;100.00;101404.00;5070209;28;20064;-29
2022/12/04 06:59:48;;;;;;;34.22;15.65;;;;;;;6.94;100.00;101408.31;5088681;28;20059;-30
2022/12/04 07:02:14;;;;;;;39.10;17.75;;;;;;;6.99;100.00;101406.03;5069495;28;20036;-29
2022/12/04 07:04:39;;;;;;;31.98;14.73;;;;;;;6.77;100.00;101402.97;5088585;28;20024;-31
2022/12/04 07:07:08;;;;;;;134.55;62.50;;;;;;;6.82;100.00;101405.97;5088658;28;20139;-30
2022/12/04 07:09:34;;;;;;;95.15;46.72;;;;;;;6.67;100.00;101398.78;5088378;28;20464;-28
2022/12/04 07:11:59;;;;;;;76.05;48.38;;;;;;;6.86;100.00;101400.34;5088378;28;20036;-31
2022/12/04 07:14:25;;;;;;;69.70;44.67;;;;;;;6.91;100.00;101403.34;5088786;28;20052;-29
2022/12/04 07:16:50;;;;;;;26.67;18.30;;;;;;;6.95;100.00;101404.69;5069904;28;20128;-32
2022/12/04 07:19:16;;;;;;;41.58;30.33;;;;;;;6.87;100.00;101404.66;5088136;28;20398;-32
2022/12/04 07:21:42;;;;;;;41.33;27.70;;;;;;;6.89;100.00;101408.00;5069806;28;20032;-31
2022/12/04 07:24:13;;;;;;;40.33;22.90;;;;;;;6.96;100.00;101401.84;5088433;28;20048;-33
2022/12/04 07:26:39;;;;;;;35.17;20.38;;;;;;;6.77;100.00;101392.34;5088370;28;20107;-30
2022/12/04 07:29:04;;;;;;;23.48;12.32;;;;;;;6.69;100.00;101388.88;5087962;28;20620;-29
2022/12/04 07:31:30;;;;;;;25.63;17.65;;;;;;;6.91;100.00;101408.66;5069848;28;20039;-30
2022/12/04 07:33:56;;;;;;;23.25;12.18;;;;;;;6.76;100.00;101406.63;5069451;28;20438;-31
2022/12/04 07:36:23;;;;;;;23.48;14.13;;;;;;;6.73;100.00;101412.22;5087828;28;20408;-32
2022/12/04 07:38:48;;;;;;;26.92;14.88;;;;;;;6.72;100.00;101405.28;5069760;28;20028;-29
2022/12/04 07:41:14;;;;;;;37.42;19.27;;;;;;;6.97;100.00;101415.97;5087838;28;20032;-30
2022/12/04 07:43:40;;;;;;;27.35;15.27;;;;;;;6.78;100.00;101394.03;5087727;28;20095;-31
2022/12/04 07:46:09;;;;;;;28.80;15.23;;;;;;;6.93;100.00;101422.59;5087740;28;20039;-28
2022/12/04 07:48:35;;;;;;;23.38;13.15;;;;;;;6.65;100.00;101420.16;5087702;28;20124;-31
2022/12/04 07:51:12;;;;;;;28.30;15.30;;;;;;;6.59;100.00;101420.78;5069336;28;20047;-28
2022/12/04 07:53:38;;;;;;;20.70;9.98;;;;;;;6.34;100.00;101394.19;5087594;28;20484;-36
2022/12/04 07:56:04;;;;;;;33.92;26.95;;;;;;;6.44;100.00;101407.31;5087770;28;20111;-29
2022/12/04 07:58:31;;;;;;;25.80;14.38;;;;;;;6.50;100.00;101390.78;5087486;28;20059;-29
2022/12/04 08:01:11;;;;;;;33.75;29.63;;;;;;;6.69;100.00;101429.44;5087492;28;20740;-28
2022/12/04 08:03:38;;;;;;;36.40;19.92;;;;;;;6.77;100.00;101428.66;5087391;28;20028;-32
2022/12/04 08:06:05;;;;;;;35.17;24.98;;;;;;;6.71;100.00;101402.78;5087452;28;20496;-29
2022/12/04 08:08:31;;;;;;;22.85;14.13;;;;;;;6.68;100.00;101403.09;5087386;28;20070;-29
2022/12/04 08:10:57;;;;;;;24.05;12.45;;;;;;;6.63;100.00;101432.75;5069091;28;20118;-28
2022/12/04 08:13:23;;;;;;;26.00;17.10;;;;;;;6.94;100.00;101422.41;5087007;28;20802;-32
2022/12/04 08:15:48;;;;;;;18.55;11.20;;;;;;;6.54;100.00;101404.53;5086958;28;20036;-31
2022/12/04 08:18:14;;;;;;;21.25;12.90;;;;;;;6.73;100.00;101417.53;5086648;28;20052;-30
2022/12/04 08:20:39;;;;;;;22.17;13.43;;;;;;;6.80;100.00;101423.88;5087256;28;20035;-31
2022/12/04 08:23:05;;;;;;;24.98;15.68;;;;;;;6.91;100.00;101425.38;5068656;28;20404;-29
2022/12/04 08:25:30;;;;;;;16.98;9.98;;;;;;;6.73;100.00;101427.31;5087333;28;20687;-37
2022/12/04 08:27:56;;;;;;;12.20;7.18;;;;;;;6.78;100.00;101419.69;5086678;28;20060;-29
2022/12/04 08:30:21;;;;;;;18.75;12.23;;;;;;;6.54;100.00;101401.88;5086902;28;20488;-28
2022/12/04 08:32:47;;;;;;;19.88;10.95;;;;;;;6.76;100.00;101396.03;5068510;28;20035;-33
2022/12/04 08:35:12;;;;;;;74.72;29.90;;;;;;;6.66;100.00;101415.69;5086801;28;20038;-30
2022/12/04 08:37:38;;;;;;;99.80;34.47;;;;;;;6.86;100.00;101416.25;5086815;28;20035;-29
2022/12/04 08:40:04;;;;;;;48.10;19.55;;;;;;;6.80;100.00;101417.72;5086740;28;20031;-29
2022/12/04 08:42:29;;;;;;;167.10;44.83;;;;;;;6.71;100.00;101419.50;5068400;28;20039;-29
2022/12/04 08:44:55;;;;;;;150.07;41.28;;;;;;;6.53;100.00;101400.22;5086559;28;20032;-28
2022/12/04 08:47:20;;;;;;;52.50;23.25;;;;;;;6.57;100.00;101383.00;5068291;28;20027;-28
2022/12/04 08:49:46;;;;;;;28.25;14.98;;;;;;;6.75;100.00;101418.19;5086573;28;20040;-28
2022/12/04 08:52:11;;;;;;;108.32;40.75;;;;;;;6.88;100.00;101403.66;5086651;28;20028;-28
2022/12/04 08:54:37;;;;;;;70.78;33.13;;;;;;;6.60;100.00;101390.66;5086578;28;20031;-29
2022/12/04 08:57:03;;;;;;;53.30;29.83;;;;;;;7.13;100.00;101423.09;5086597;28;20043;-30
2022/12/04 08:59:28;;;;;;;24.55;11.73;;;;;;;6.79;100.00;101394.84;5086215;28;20031;-29
2022/12/04 09:01:53;;;;;;;19.15;10.50;;;;;;;6.76;100.00;101416.38;5086139;28;20032;-31
2022/12/04 09:04:19;;;;;;;16.50;9.32;;;;;;;6.71;100.00;101408.09;5068153;28;20024;-29
2022/12/04 09:06:44;;;;;;;38.95;16.58;;;;;;;6.56;100.00;101382.19;5068019;28;20103;-27
2022/12/04 09:09:11;;;;;;;20.63;11.10;;;;;;;6.56;100.00;101410.50;5067956;28;20036;-29
2022/12/04 09:11:36;;;;;;;10.93;6.22;;;;;;;6.46;100.00;101405.34;5067780;28;20115;-35
2022/12/04 09:14:02;;;;;;;43.25;27.08;;;;;;;6.53;100.00;101384.31;5067445;28;20028;-30
2022/12/04 09:16:28;;;;;;;15.35;9.25;;;;;;;6.58;100.00;101400.59;5086048;28;20031;-28
2022/12/04 09:18:54;;;;;;;27.90;16.95;;;;;;;6.75;100.00;101410.25;5067813;28;20490;-32
2022/12/04 09:21:22;;;;;;;21.48;14.98;;;;;;;6.91;100.00;101404.16;5067955;28;20085;-29
2022/12/04 09:23:48;;;;;;;11.93;6.97;;;;;;;6.97;100.00;101408.00;5085824;28;20995;-31
2022/12/04 09:26:28;;;;;;;11.00;6.38;;;;;;;6.75;100.00;101398.81;5085664;28;20035;-28
2022/12/04 09:28:55;;;;;;;11.27;5.93;;;;;;;6.67;100.00;101394.31;5067476;28;20500;-35
2022/12/04 09:31:21;;;;;;;9.43;4.53;;;;;;;6.55;100.00;101390.28;5067626;28;20024;-30
2022/12/04 09:33:47;;;;;;;16.33;13.27;;;;;;;6.50;100.00;101396.09;5067404;28;20443;-30
2022/12/04 09:36:15;;;;;;;12.77;6.65;;;;;;;6.53;100.00;101374.53;5067693;28;20028;-30
2022/12/04 09:38:45;;;;;;;11.88;6.63;;;;;;;6.42;100.00;101383.63;5067377;28;20027;-30
2022/12/04 09:41:35;;;;;;;15.77;10.68;;;;;;;6.57;100.00;101389.13;5067555;28;20028;-30
2022/12/04 09:44:14;;;;;;;27.17;20.95;;;;;;;6.71;100.00;101374.44;5067406;28;20036;-29
2022/12/04 09:47:02;;;;;;;19.58;12.95;;;;;;;6.75;100.00;101372.31;5067626;28;20024;-30
2022/12/04 09:49:36;;;;;;;23.02;17.08;;;;;;;6.81;100.00;101377.78;5067459;28;20028;-32
2022/12/04 09:52:06;;;;;;;11.95;8.15;;;;;;;6.75;100.00;101385.56;5051338;28;20028;-29
2022/12/04 09:54:39;;;;;;;19.13;12.73;;;;;;;6.60;100.00;101380.06;5086295;28;20055;-30
2022/12/04 09:57:15;;;;;;;15.82;9.10;;;;;;;6.81;100.00;101367.19;5067468;28;20035;-31
2022/12/04 09:59:42;;;;;;;14.85;9.05;;;;;;;6.89;100.00;101373.50;5085690;28;20028;-28
2022/12/04 10:02:41;;;;;;;17.20;9.85;;;;;;;6.99;100.00;101366.25;5085323;28;20089;-35
2022/12/04 10:05:16;;;;;;;13.98;9.43;;;;;;;7.02;100.00;101364.06;5051812;28;20494;-27
2022/12/04 10:08:11;;;;;;;17.67;12.55;;;;;;;7.11;100.00;101354.31;5067199;28;20027;-29
2022/12/04 10:10:41;;;;;;;12.70;7.35;;;;;;;6.99;100.00;101352.97;5085177;28;20036;-31
2022/12/04 10:13:06;;;;;;;17.83;11.00;;;;;;;6.84;100.00;101334.19;5085733;28;20032;-29
2022/12/04 10:15:45;;;;;;;21.52;13.18;;;;;;;7.02;100.00;101329.59;5086057;28;20032;-29
2022/12/04 10:18:24;;;;;;;20.95;12.30;;;;;;;7.08;100.00;101351.97;5067237;28;20055;-29
2022/12/04 10:20:49;;;;;;;;;;;;;;;7.19;100.00;101334.91;5086337;28;20698;-29
2022/12/04 10:23:20;;;;;;;21.23;14.23;;;;;;;7.13;100.00;101332.91;5085658;28;19972;-30
2022/12/04 10:25:49;;;;;;;11.85;6.55;;;;;;;7.13;100.00;101325.81;5084852;28;20082;-29
2022/12/04 10:28:26;;;;;;;12.63;7.85;;;;;;;7.20;100.00;101340.03;5085650;28;20036;-32
2022/12/04 10:30:56;;;;;;;15.17;7.67;;;;;;;6.89;100.00;101331.09;5067008;28;20036;-29
2022/12/04 10:33:49;;;;;;;13.43;8.45;;;;;;;6.81;100.00;101310.69;5085682;28;20102;-30
2022/12/04 10:36:19;;;;;;;14.20;9.25;;;;;;;6.70;100.00;101309.19;5085616;28;20024;-29
2022/12/04 10:39:12;;;;;;;15.48;8.55;;;;;;;7.00;100.00;101318.31;5070931;28;20035;-28
2022/12/04 10:41:53;;;;;;;25.30;13.40;;;;;;;7.11;100.00;101319.84;5088886;28;20031;-33
2022/12/04 10:44:19;;;;;;;27.58;11.00;;;;;;;7.16;100.00;101306.06;5089104;28;20036;-32
2022/12/04 10:46:45;;;;;;;56.28;30.90;;;;;;;7.10;100.00;101302.25;5088673;28;20036;-30
2022/12/04 10:49:25;;;;;;;42.15;28.88;;;;;;;7.17;100.00;101319.16;5070819;28;20036;-30
2022/12/04 10:51:51;;;;;;;22.48;13.73;;;;;;;7.27;100.00;101310.19;5088768;28;20103;-30
2022/12/04 10:54:30;;;;;;;30.63;20.27;;;;;;;7.33;100.00;101330.75;5088613;28;20035;-31
2022/12/04 10:56:59;;;;;;;19.33;10.88;;;;;;;7.45;100.00;101316.97;5070565;28;20062;-31
2022/12/04 10:59:25;;;;;;;37.83;21.80;;;;;;;7.21;100.00;101291.31;5070385;28;20036;-29
2022/12/04 11:01:59;;;;;;;30.13;15.82;;;;;;;7.19;100.00;101300.41;5070057;28;20077;-30
2022/12/04 11:04:28;;;;;;;59.80;37.00;;;;;;;7.39;100.00;101308.88;5070353;28;20100;-32
2022/12/04 11:07:14;;;;;;;26.10;16.90;;;;;;;7.07;100.00;101284.03;5088660;28;20479;-33
2022/12/04 11:09:40;;;;;;;29.98;18.65;;;;;;;7.10;100.00;101286.31;5088243;28;20036;-32
2022/12/04 11:12:16;;;;;;;23.38;12.52;;;;;;;7.11;100.00;101303.91;5088643;28;20030;-29
2022/12/04 11:14:42;;;;;;;33.90;29.15;;;;;;;6.83;100.00;101285.66;5088218;28;20067;-36
2022/12/04 11:17:16;;;;;;;61.45;33.60;;;;;;;7.01;100.00;101293.47;5087786;28;20472;-28
2022/12/04 11:19:42;;;;;;;24.58;13.48;;;;;;;7.21;100.00;101304.56;5088011;28;20027;-29
2022/12/04 11:22:15;;;;;;;19.65;9.20;;;;;;;7.21;100.00;101303.72;5069890;28;20039;-31
2022/12/04 11:24:42;;;;;;;20.33;10.52;;;;;;;7.37;99.84;101284.31;5088070;28;20500;-30
2022/12/04 11:27:22;;;;;;;22.92;14.68;;;;;;;7.40;100.00;101281.34;5088209;28;20028;-31
2022/12/04 11:29:49;;;;;;;38.22;15.80;;;;;;;7.37;100.00;101279.00;5087933;28;20491;-28
2022/12/04 11:32:32;;;;;;;18.83;8.35;;;;;;;7.52;99.53;101292.41;5088110;28;20682;-28
2022/12/04 11:35:19;;;;;;;10.73;6.18;;;;;;;7.35;97.87;101289.78;5087922;28;20038;-36
2022/12/04 11:38:15;;;;;;;17.63;7.78;;;;;;;7.31;98.08;101277.84;5069413;28;20122;-29